Airport View

Enter AWOS ICAO identifier for current METAR.

ex. KFNL

KOJA 221815Z AUTO 02016G21KT 10SM BKN039 28/18 A3018 RMK AO2

22 Jul 2019 18:50

Frequency: 118.575

Phone: 580-772-7020

Other Area AWOS: KCLK - KJWG - KCSM - KRQO

TAF KCSM 221720Z 2218/2318 02016G24KT P6SM BKN030 FM222200 02016G24KT P6SM SCT030 FM230100 05012KT P6SM SCT250 FM231500 04011KT P6SM SKC